E.r. Bern — A8XQ5 — position and weather

sailwx.info

Track history (hours):
 
Tides and Currents Weather Stations Pressure Air Temp Water Temp Dewpoint Dewpoint Depression Visibility Wind Speed Wind Dir Waves Ship Positions

E.r. Bern

Last reported at 2015-Mar-13 12:33 UTC. Time now 2015-Mar-27 12:02 UTC.
Position N 35°46' E 032°53'.
Warning: this ship's position is 13 days out of date.

Length 187 m; draft 9.1 m.

Type: Cargo ship. MMSI: 636092150.

Date/timePositionNaut miles runAvg speedWind from/ knotsBaromVisibWave heightAir tempDewpointWater temp
2015-Mar-13 12:33N 35°46' E 032°53'  
2015-Mar-07 18:33N 36°00' W 005°15'1414.2
2015-Mar-07 17:33N 35°57' W 005°32'16910.9
2015-Mar-07 02:09N 36°29' W 008°57'711.1
2015-Mar-07 01:31N 36°31' W 009°05'1411.1
2015-Mar-07 00:15N 36°37' W 009°22'811.6
2015-Mar-06 23:33N 36°42' W 009°29'1211.8
2015-Mar-06 22:32N 36°53' W 009°36'1212.4
2015-Mar-06 21:32N 37°05' W 009°38'1313.3
2015-Mar-06 20:33N 37°18' W 009°42'1413.8
2015-Mar-06 19:33N 37°31' W 009°46'1413.7
2015-Mar-06 18:33N 37°45' W 009°50'1413.5
2015-Mar-06 17:33N 37°58' W 009°54'2013.8
2015-Mar-06 16:07N 38°17' W 009°59'813.9
2015-Mar-06 15:32N 38°25' W 010°01'1613.5
2015-Mar-06 14:23N 38°40' W 010°06'2513.2
2015-Mar-06 12:30N 39°05' W 010°06'1813.5
2015-Mar-06 11:11N 39°23' W 010°06'  
2015-Mar-03 17:05N 50°16' W 001°23'  
Track history (hours):
 
Tides and Currents Weather Stations Pressure Air Temp Water Temp Dewpoint Dewpoint Depression Visibility Wind Speed Wind Dir Waves Ship Positions

E.r. Bern

Last reported at 2015-Mar-13 12:33 UTC. Time now 2015-Mar-27 12:02 UTC.
Position N 35°46' E 032°53'.
Warning: this ship's position is 13 days out of date.

Length 187 m; draft 9.1 m.

Type: Cargo ship. MMSI: 636092150.

Date/timePositionNaut miles runAvg speedWind from/ knotsBaromVisibWave heightAir tempDewpointWater temp
2015-Mar-13 12:33N 35°46' E 032°53'  
2015-Mar-07 18:33N 36°00' W 005°15'1414.2
2015-Mar-07 17:33N 35°57' W 005°32'16910.9
2015-Mar-07 02:09N 36°29' W 008°57'711.1
2015-Mar-07 01:31N 36°31' W 009°05'1411.1
2015-Mar-07 00:15N 36°37' W 009°22'811.6
2015-Mar-06 23:33N 36°42' W 009°29'1211.8
2015-Mar-06 22:32N 36°53' W 009°36'1212.4
2015-Mar-06 21:32N 37°05' W 009°38'1313.3
2015-Mar-06 20:33N 37°18' W 009°42'1413.8
2015-Mar-06 19:33N 37°31' W 009°46'1413.7
2015-Mar-06 18:33N 37°45' W 009°50'1413.5
2015-Mar-06 17:33N 37°58' W 009°54'2013.8
2015-Mar-06 16:07N 38°17' W 009°59'813.9
2015-Mar-06 15:32N 38°25' W 010°01'1613.5
2015-Mar-06 14:23N 38°40' W 010°06'2513.2
2015-Mar-06 12:30N 39°05' W 010°06'1813.5
2015-Mar-06 11:11N 39°23' W 010°06'  
2015-Mar-03 17:05N 50°16' W 001°23'  

Dump ship's entire track history